createdAt,value
2019-02-04T00:00:32.770Z,97482.39
2019-02-04T00:01:37.541Z,97485.27
2019-02-04T00:02:41.245Z,97483.09
2019-02-04T00:03:44.879Z,97489.40
2019-02-04T00:04:48.924Z,97482.17
2019-02-04T00:05:52.931Z,97481.73
2019-02-04T00:06:56.710Z,97486.36
2019-02-04T00:08:00.513Z,97486.36
2019-02-04T00:09:06.508Z,97489.77
2019-02-04T00:10:12.295Z,97490.02
2019-02-04T00:11:16.056Z,97487.91
2019-02-04T00:12:19.787Z,97493.66
2019-02-04T00:13:23.516Z,97493.66
2019-02-04T00:14:27.146Z,97488.63
2019-02-04T00:15:30.801Z,97506.07
2019-02-04T00:16:40.865Z,97513.98
2019-02-04T00:17:39.950Z,97510.03
2019-02-04T00:18:43.683Z,97515.72
2019-02-04T00:19:47.315Z,97515.72
2019-02-04T00:20:51.015Z,97512.41
2019-02-04T00:21:55.174Z,97512.41
2019-02-04T00:22:58.967Z,97520.26
2019-02-04T00:24:02.619Z,97520.26
2019-02-04T00:25:07.378Z,97509.88
2019-02-04T00:26:11.189Z,97521.91
2019-02-04T00:27:14.869Z,97524.59
2019-02-04T00:28:18.600Z,97526.68
2019-02-04T00:29:22.332Z,97528.42
2019-02-04T00:30:27.278Z,97526.71
2019-02-04T00:31:31.077Z,97532.56
2019-02-04T00:32:35.103Z,97532.33
2019-02-04T00:33:38.869Z,97530.80
2019-02-04T00:34:42.666Z,97544.72
2019-02-04T00:35:46.376Z,97545.34
2019-02-04T00:36:50.566Z,97552.91
2019-02-04T00:37:54.670Z,97552.91
2019-02-04T00:38:58.347Z,97554.66
2019-02-04T00:40:02.002Z,97550.09
2019-02-04T00:41:05.848Z,97546.33
2019-02-04T00:42:09.496Z,97551.77
2019-02-04T00:43:13.128Z,97558.86
2019-02-04T00:44:16.797Z,97558.86
2019-02-04T00:45:20.518Z,97559.16
2019-02-04T00:46:24.214Z,97561.55
2019-02-04T00:47:27.905Z,97548.60
2019-02-04T00:48:31.540Z,97536.97
2019-02-04T00:49:35.261Z,97549.61
2019-02-04T00:50:39.260Z,97549.61
2019-02-04T00:51:43.193Z,97541.41
2019-02-04T00:52:46.989Z,97544.90
2019-02-04T00:53:50.691Z,97544.66
2019-02-04T00:54:54.475Z,97544.66
2019-02-04T00:55:58.582Z,97546.48
2019-02-04T00:57:02.271Z,97544.13
2019-02-04T00:58:05.932Z,97544.13
2019-02-04T00:59:09.582Z,97544.44
2019-02-04T01:00:28.617Z,97537.00
2019-02-04T01:01:32.913Z,97532.44
2019-02-04T01:02:36.568Z,97543.08
2019-02-04T01:03:40.506Z,97543.08
2019-02-04T01:04:44.137Z,97546.46
2019-02-04T01:05:48.076Z,97551.27
2019-02-04T01:06:51.795Z,97539.42
2019-02-04T01:07:55.925Z,97539.42
2019-02-04T01:08:59.701Z,97551.09
2019-02-04T01:10:05.107Z,97548.47
2019-02-04T01:11:08.964Z,97548.47
2019-02-04T01:12:12.604Z,97551.14
2019-02-04T01:13:16.529Z,97550.23
2019-02-04T01:14:20.171Z,97549.30
2019-02-04T01:15:24.008Z,97550.59
2019-02-04T01:16:27.691Z,97550.59
2019-02-04T01:17:31.328Z,97558.28
2019-02-04T01:18:35.024Z,97554.07
2019-02-04T01:19:39.037Z,97566.61
2019-02-04T01:20:42.673Z,97563.64
2019-02-04T01:21:46.407Z,97564.94
2019-02-04T01:22:50.120Z,97560.61
2019-02-04T01:23:53.751Z,97557.94
2019-02-04T01:24:57.574Z,97561.16
2019-02-04T01:26:01.615Z,97558.64
2019-02-04T01:27:05.452Z,97562.23
2019-02-04T01:28:09.082Z,97558.09
2019-02-04T01:29:12.710Z,97564.95
2019-02-04T01:30:19.191Z,97570.17
2019-02-04T01:31:22.824Z,97573.26
2019-02-04T01:32:26.484Z,97573.26
2019-02-04T01:33:30.121Z,97577.82
2019-02-04T01:34:33.777Z,97576.87
2019-02-04T01:35:37.391Z,97578.34
2019-02-04T01:36:41.009Z,97576.08
2019-02-04T01:37:44.678Z,97576.38
2019-02-04T01:38:48.767Z,97574.19
2019-02-04T01:39:52.392Z,97579.00
2019-02-04T01:40:56.649Z,97575.28
2019-02-04T01:42:00.287Z,97578.20
2019-02-04T01:43:04.014Z,97574.95
2019-02-04T01:44:07.645Z,97582.61
2019-02-04T01:45:11.284Z,97591.89
2019-02-04T01:46:14.915Z,97591.89
2019-02-04T01:47:18.559Z,97596.12
2019-02-04T01:48:22.275Z,97595.91
2019-02-04T01:49:25.913Z,97591.43
2019-02-04T01:50:29.539Z,97599.41
2019-02-04T01:51:33.232Z,97594.05
2019-02-04T01:52:36.869Z,97598.57
2019-02-04T01:53:40.869Z,97591.03
2019-02-04T01:54:44.502Z,97591.03
2019-02-04T01:55:48.511Z,97602.38
2019-02-04T01:56:52.139Z,97603.68
2019-02-04T01:57:56.173Z,97597.48
2019-02-04T01:58:59.834Z,97599.53
2019-02-04T02:00:05.039Z,97598.70
2019-02-04T02:01:08.663Z,97593.74
2019-02-04T02:02:12.399Z,97592.23
2019-02-04T02:03:16.036Z,97597.52
2019-02-04T02:04:19.701Z,97596.42
2019-02-04T02:05:23.424Z,97597.22
2019-02-04T02:06:27.045Z,97593.66
2019-02-04T02:07:30.671Z,97596.29
2019-02-04T02:08:34.301Z,97597.68
2019-02-04T02:09:37.964Z,97600.01
2019-02-04T02:10:41.984Z,97603.53
2019-02-04T02:11:45.611Z,97607.50
2019-02-04T02:12:49.543Z,97609.84
2019-02-04T02:13:53.254Z,97606.24
2019-02-04T02:14:56.908Z,97616.66
2019-02-04T02:16:00.538Z,97616.83
2019-02-04T02:17:04.674Z,97619.28
2019-02-04T02:18:08.307Z,97617.75
2019-02-04T02:19:12.036Z,97616.00
2019-02-04T02:20:21.550Z,97618.02
2019-02-04T02:21:25.107Z,97619.77
2019-02-04T02:22:28.754Z,97620.39
2019-02-04T02:23:32.383Z,97625.45
2019-02-04T02:24:36.022Z,97628.30
2019-02-04T02:25:39.688Z,97624.41
2019-02-04T02:26:43.602Z,97624.70
2019-02-04T02:27:48.510Z,97626.42
2019-02-04T02:28:52.148Z,97630.39
2019-02-04T02:29:56.159Z,97629.39
2019-02-04T02:30:59.822Z,97632.48
2019-02-04T02:32:03.454Z,97629.63
2019-02-04T02:33:07.196Z,97627.91
2019-02-04T02:34:10.875Z,97626.53
2019-02-04T02:35:14.512Z,97623.48
2019-02-04T02:36:18.174Z,97623.91
2019-02-04T02:37:21.802Z,97623.52
2019-02-04T02:38:25.432Z,97632.22
2019-02-04T02:39:29.058Z,97635.51
2019-02-04T02:40:34.061Z,97633.42
2019-02-04T02:41:38.004Z,97634.22
2019-02-04T02:42:42.012Z,97624.64
2019-02-04T02:43:45.646Z,97624.64
2019-02-04T02:44:49.286Z,97633.66
2019-02-04T02:45:52.920Z,97629.64
2019-02-04T02:46:56.622Z,97636.29
2019-02-04T02:48:00.308Z,97630.61
2019-02-04T02:49:03.891Z,97632.36
2019-02-04T02:50:10.190Z,97623.44
2019-02-04T02:51:13.749Z,97627.08
2019-02-04T02:52:17.416Z,97627.23
2019-02-04T02:53:21.053Z,97627.38
2019-02-04T02:54:24.832Z,97627.63
2019-02-04T02:55:28.466Z,97629.14
2019-02-04T02:56:32.475Z,97628.17
2019-02-04T02:57:36.339Z,97635.38
2019-02-04T02:58:39.963Z,97626.84
2019-02-04T02:59:43.589Z,97630.98
2019-02-04T03:00:47.181Z,97629.77
2019-02-04T03:01:51.617Z,97630.86
2019-02-04T03:02:55.481Z,97635.75
2019-02-04T03:03:59.106Z,97634.53
2019-02-04T03:05:02.737Z,97637.67
2019-02-04T03:06:06.372Z,97638.30
2019-02-04T03:07:10.023Z,97639.77
2019-02-04T03:08:13.699Z,97634.50
2019-02-04T03:09:17.333Z,97632.31
2019-02-04T03:10:26.770Z,97628.00
2019-02-04T03:11:30.395Z,97626.11
2019-02-04T03:12:34.308Z,97619.84
2019-02-04T03:13:38.351Z,97624.66
2019-02-04T03:14:41.980Z,97622.82
2019-02-04T03:15:45.616Z,97624.16
2019-02-04T03:16:49.258Z,97624.16
2019-02-04T03:17:53.195Z,97627.25
2019-02-04T03:18:56.859Z,97628.42
2019-02-04T03:20:00.489Z,97624.70
2019-02-04T03:21:04.123Z,97625.25
2019-02-04T03:22:07.796Z,97622.91
2019-02-04T03:23:11.430Z,97622.11
2019-02-04T03:24:15.087Z,97613.75
2019-02-04T03:25:18.794Z,97613.75
2019-02-04T03:26:22.422Z,97622.77
2019-02-04T03:27:26.230Z,97620.38
2019-02-04T03:28:29.869Z,97621.83
2019-02-04T03:29:33.541Z,97620.44
2019-02-04T03:30:37.214Z,97620.80
2019-02-04T03:31:45.679Z,97621.52
2019-02-04T03:32:46.585Z,97621.89
2019-02-04T03:33:50.498Z,97620.61
2019-02-04T03:34:54.182Z,97616.89
2019-02-04T03:35:57.812Z,97621.70
2019-02-04T03:37:01.447Z,97616.64
2019-02-04T03:38:05.081Z,97614.32
2019-02-04T03:39:08.820Z,97614.32
2019-02-04T03:40:23.963Z,97617.35
2019-02-04T03:41:27.974Z,97617.35
2019-02-04T03:42:31.701Z,97614.59
2019-02-04T03:43:35.336Z,97618.80
2019-02-04T03:44:39.247Z,97624.00
2019-02-04T03:45:43.398Z,97610.22
2019-02-04T03:46:47.035Z,97610.22
2019-02-04T03:48:03.735Z,97619.81
2019-02-04T03:48:55.965Z,97614.81
2019-02-04T03:49:59.599Z,97620.83
2019-02-04T03:51:03.276Z,97620.83
2019-02-04T03:52:07.363Z,97623.78
2019-02-04T03:53:11.001Z,97624.19
2019-02-04T03:54:14.564Z,97624.19
2019-02-04T03:55:18.802Z,97625.91
2019-02-04T03:56:22.523Z,97624.25
2019-02-04T03:57:26.160Z,97628.56
2019-02-04T03:58:29.783Z,97622.25
2019-02-04T03:59:33.406Z,97621.31
2019-02-04T04:00:37.501Z,97622.46
2019-02-04T04:01:41.646Z,97620.58
2019-02-04T04:02:45.375Z,97629.36
2019-02-04T04:03:49.004Z,97628.56
2019-02-04T04:04:52.840Z,97632.36
2019-02-04T04:05:56.488Z,97631.03
2019-02-04T04:07:00.177Z,97626.16
2019-02-04T04:08:03.813Z,97620.50
2019-02-04T04:09:08.141Z,97620.88
2019-02-04T04:10:12.278Z,97621.34
2019-02-04T04:11:15.923Z,97623.34
2019-02-04T04:12:19.572Z,97615.69
2019-02-04T04:13:23.588Z,97617.59
2019-02-04T04:14:27.224Z,97621.64
2019-02-04T04:15:31.094Z,97622.52
2019-02-04T04:16:35.102Z,97629.30
2019-02-04T04:17:38.767Z,97632.30
2019-02-04T04:18:42.401Z,97619.59
2019-02-04T04:19:46.040Z,97627.50
2019-02-04T04:20:49.579Z,97623.23
2019-02-04T04:21:53.215Z,97623.19
2019-02-04T04:22:56.881Z,97620.63
2019-02-04T04:24:00.512Z,97622.18
2019-02-04T04:25:05.546Z,97626.94
2019-02-04T04:26:09.281Z,97620.25
2019-02-04T04:27:12.911Z,97626.02
2019-02-04T04:28:16.580Z,97622.46
2019-02-04T04:29:20.213Z,97621.09
2019-02-04T04:30:26.221Z,97620.27
2019-02-04T04:31:30.233Z,97615.40
2019-02-04T04:32:33.876Z,97616.00
2019-02-04T04:33:37.672Z,97616.08
2019-02-04T04:34:41.421Z,97620.35
2019-02-04T04:35:45.336Z,97620.35
2019-02-04T04:36:48.975Z,97620.65
2019-02-04T04:37:53.168Z,97623.37
2019-02-04T04:38:56.837Z,97618.39
2019-02-04T04:40:00.474Z,97622.78
2019-02-04T04:41:04.225Z,97620.53
2019-02-04T04:42:07.851Z,97620.53
2019-02-04T04:43:11.479Z,97623.45
2019-02-04T04:44:15.146Z,97613.53
2019-02-04T04:45:24.115Z,97614.63
2019-02-04T04:46:28.027Z,97615.89
2019-02-04T04:47:32.046Z,97622.03
2019-02-04T04:48:35.551Z,97622.03
2019-02-04T04:49:39.229Z,97625.04
2019-02-04T04:50:43.186Z,97626.97
2019-02-04T04:51:46.818Z,97626.72
2019-02-04T04:52:50.460Z,97630.98
2019-02-04T04:53:54.103Z,97631.48
2019-02-04T04:54:57.782Z,97630.13
2019-02-04T04:56:01.421Z,97633.42
2019-02-04T04:57:05.088Z,97630.75
2019-02-04T04:58:08.736Z,97633.36
2019-02-04T04:59:12.373Z,97639.05
2019-02-04T05:00:24.852Z,97634.16
2019-02-04T05:01:28.483Z,97633.92
2019-02-04T05:02:32.154Z,97639.38
2019-02-04T05:03:36.084Z,97639.83
2019-02-04T05:04:39.707Z,97635.74
2019-02-04T05:05:43.337Z,97633.36
2019-02-04T05:06:46.908Z,97634.48
2019-02-04T05:07:50.580Z,97639.03
2019-02-04T05:08:54.220Z,97633.84
2019-02-04T05:09:57.838Z,97640.84
2019-02-04T05:11:01.410Z,97637.30
2019-02-04T05:12:05.051Z,97642.19
2019-02-04T05:13:08.736Z,97642.89
2019-02-04T05:14:12.733Z,97640.21
2019-02-04T05:15:18.668Z,97643.55
2019-02-04T05:16:22.306Z,97641.05
2019-02-04T05:17:25.935Z,97648.32
2019-02-04T05:18:37.873Z,97638.78
2019-02-04T05:19:35.196Z,97640.05
2019-02-04T05:20:38.753Z,97642.61
2019-02-04T05:21:42.391Z,97640.58
2019-02-04T05:22:45.954Z,97640.97
2019-02-04T05:23:49.633Z,97648.53
2019-02-04T05:24:53.268Z,97649.30
2019-02-04T05:25:56.908Z,97653.20
2019-02-04T05:27:00.549Z,97648.94
2019-02-04T05:28:04.186Z,97655.11
2019-02-04T05:29:07.857Z,97658.88
2019-02-04T05:30:14.193Z,97657.43
2019-02-04T05:31:17.842Z,97654.64
2019-02-04T05:32:21.481Z,97654.97
2019-02-04T05:33:25.182Z,97659.88
2019-02-04T05:34:29.550Z,97666.38
2019-02-04T05:35:33.197Z,97670.39
2019-02-04T05:36:36.845Z,97673.69
2019-02-04T05:37:40.455Z,97676.25
2019-02-04T05:38:44.463Z,97677.59
2019-02-04T05:39:48.137Z,97673.47
2019-02-04T05:40:51.770Z,97677.66
2019-02-04T05:41:55.404Z,97676.69
2019-02-04T05:42:59.051Z,97680.56
2019-02-04T05:44:02.664Z,97677.59
2019-02-04T05:45:09.017Z,97682.03
2019-02-04T05:46:12.640Z,97688.47
2019-02-04T05:47:16.379Z,97692.30
2019-02-04T05:48:20.022Z,97694.87
2019-02-04T05:49:24.026Z,97693.70
2019-02-04T05:50:27.676Z,97695.84
2019-02-04T05:51:31.307Z,97701.77
2019-02-04T05:52:34.946Z,97700.39
2019-02-04T05:53:38.902Z,97701.19
2019-02-04T05:54:42.533Z,97696.53
2019-02-04T05:55:46.207Z,97697.69
2019-02-04T05:56:49.841Z,97701.45
2019-02-04T05:57:53.478Z,97706.51
2019-02-04T05:58:57.118Z,97711.86
2019-02-04T06:00:00.798Z,97714.55
2019-02-04T06:01:04.730Z,97718.16
2019-02-04T06:02:09.484Z,97717.36
2019-02-04T06:03:13.295Z,97717.14
2019-02-04T06:04:17.307Z,97717.44
2019-02-04T06:05:21.245Z,97711.98
2019-02-04T06:06:24.912Z,97720.88
2019-02-04T06:07:28.733Z,97718.46
2019-02-04T06:08:32.365Z,97723.56
2019-02-04T06:09:36.000Z,97724.64
2019-02-04T06:10:39.640Z,97724.39
2019-02-04T06:11:43.285Z,97722.33
2019-02-04T06:12:46.925Z,97728.97
2019-02-04T06:13:50.588Z,97732.19
2019-02-04T06:14:54.298Z,97738.52
2019-02-04T06:15:57.933Z,97735.25
2019-02-04T06:17:01.612Z,97733.22
2019-02-04T06:18:05.423Z,97731.05
2019-02-04T06:19:09.338Z,97736.00
2019-02-04T06:20:18.452Z,97741.75
2019-02-04T06:21:22.081Z,97738.31
2019-02-04T06:22:25.750Z,97735.36
2019-02-04T06:23:29.382Z,97739.91
2019-02-04T06:24:33.016Z,97746.27
2019-02-04T06:25:36.664Z,97750.06
2019-02-04T06:26:40.331Z,97753.02
2019-02-04T06:27:43.991Z,97765.15
2019-02-04T06:28:47.629Z,97754.96
2019-02-04T06:29:51.260Z,97760.56
2019-02-04T06:30:54.901Z,97764.31
2019-02-04T06:31:58.953Z,97765.66
2019-02-04T06:33:02.634Z,97768.23
2019-02-04T06:34:06.647Z,97766.42
2019-02-04T06:35:11.272Z,97772.52
2019-02-04T06:36:14.884Z,97772.97
2019-02-04T06:37:18.522Z,97774.41
2019-02-04T06:38:22.192Z,97770.14
2019-02-04T06:39:25.823Z,97767.79
2019-02-04T06:40:29.464Z,97770.91
2019-02-04T06:41:33.092Z,97771.09
2019-02-04T06:42:36.727Z,97767.95
2019-02-04T06:43:40.402Z,97773.73
2019-02-04T06:44:43.966Z,97768.39
2019-02-04T06:45:47.651Z,97770.71
2019-02-04T06:46:51.326Z,97765.91
2019-02-04T06:47:54.949Z,97766.25
2019-02-04T06:48:59.011Z,97774.56
2019-02-04T06:50:02.645Z,97772.05
2019-02-04T06:51:06.284Z,97770.36
2019-02-04T06:52:09.921Z,97778.13
2019-02-04T06:53:13.558Z,97782.14
2019-02-04T06:54:17.320Z,97780.06
2019-02-04T06:55:24.035Z,97786.15
2019-02-04T06:56:27.746Z,97785.13
2019-02-04T06:57:31.389Z,97790.22
2019-02-04T06:58:35.087Z,97793.59
2019-02-04T06:59:38.755Z,97788.20
2019-02-04T07:00:43.381Z,97786.10
2019-02-04T07:01:47.197Z,97792.38
2019-02-04T07:02:50.905Z,97798.69
2019-02-04T07:03:54.923Z,97797.92
2019-02-04T07:04:58.812Z,97800.41
2019-02-04T07:06:02.538Z,97804.93
2019-02-04T07:07:06.703Z,97807.80
2019-02-04T07:08:10.346Z,97805.47
2019-02-04T07:09:14.025Z,97807.38
2019-02-04T07:10:23.094Z,97805.47
2019-02-04T07:11:26.736Z,97801.30
2019-02-04T07:12:30.387Z,97805.18
2019-02-04T07:13:34.022Z,97800.98
2019-02-04T07:14:37.729Z,97810.47
2019-02-04T07:15:41.405Z,97802.89
2019-02-04T07:16:45.064Z,97809.09
2019-02-04T07:17:49.062Z,97813.61
2019-02-04T07:18:52.872Z,97815.87
2019-02-04T07:19:56.893Z,97813.80
2019-02-04T07:21:00.566Z,97819.44
2019-02-04T07:22:04.216Z,97822.63
2019-02-04T07:23:07.860Z,97825.67
2019-02-04T07:24:11.497Z,97821.91
2019-02-04T07:25:16.438Z,97826.79
2019-02-04T07:26:20.100Z,97818.41
2019-02-04T07:27:23.793Z,97824.89
2019-02-04T07:28:27.833Z,97820.91
2019-02-04T07:29:31.459Z,97819.33
2019-02-04T07:30:35.097Z,97819.54
2019-02-04T07:31:38.764Z,97817.26
2019-02-04T07:32:42.403Z,97817.95
2019-02-04T07:33:46.417Z,97818.93
2019-02-04T07:34:50.056Z,97815.71
2019-02-04T07:35:53.684Z,97817.16
2019-02-04T07:36:57.360Z,97819.91
2019-02-04T07:38:01.084Z,97820.09
2019-02-04T07:39:07.494Z,97817.20
2019-02-04T07:40:16.470Z,97821.17
2019-02-04T07:41:20.114Z,97817.05
2019-02-04T07:42:23.739Z,97816.97
2019-02-04T07:43:27.384Z,97824.19
2019-02-04T07:44:31.015Z,97826.26
2019-02-04T07:45:34.752Z,97829.66
2019-02-04T07:46:38.434Z,97833.24
2019-02-04T07:47:42.370Z,97837.22
2019-02-04T07:48:46.052Z,97843.01
2019-02-04T07:49:50.178Z,97840.14
2019-02-04T07:50:53.850Z,97844.04
2019-02-04T07:51:57.596Z,97838.39
2019-02-04T07:53:01.300Z,97831.64
2019-02-04T07:54:05.047Z,97831.44
2019-02-04T07:55:10.486Z,97835.88
2019-02-04T07:56:14.184Z,97834.67
2019-02-04T07:57:17.826Z,97833.24
2019-02-04T07:58:21.638Z,97832.58
2019-02-04T07:59:25.278Z,97829.47
2019-02-04T08:00:31.228Z,97834.96
2019-02-04T08:01:35.153Z,97833.83
2019-02-04T08:02:38.797Z,97828.72
2019-02-04T08:03:42.434Z,97825.45
2019-02-04T08:04:46.261Z,97829.27
2019-02-04T08:05:50.265Z,97831.66
2019-02-04T08:06:53.936Z,97833.99
2019-02-04T08:07:57.778Z,97841.03
2019-02-04T08:09:01.345Z,97845.14
2019-02-04T08:10:07.780Z,97838.85
2019-02-04T08:11:11.344Z,97840.32
2019-02-04T08:12:15.014Z,97846.77
2019-02-04T08:13:18.660Z,97843.97
2019-02-04T08:14:22.297Z,97840.53
2019-02-04T08:15:28.731Z,97840.78
2019-02-04T08:16:32.368Z,97837.26
2019-02-04T08:17:36.042Z,97837.26
2019-02-04T08:18:39.756Z,97835.16
2019-02-04T08:19:47.056Z,97834.07
2019-02-04T08:20:48.769Z,97831.64
2019-02-04T08:21:52.414Z,97843.44
2019-02-04T08:22:56.082Z,97843.44
2019-02-04T08:23:59.727Z,97841.20
2019-02-04T08:25:03.628Z,97839.48
2019-02-04T08:26:07.283Z,97839.48
2019-02-04T08:27:11.008Z,97845.38
2019-02-04T08:28:14.682Z,97840.88
2019-02-04T08:29:18.327Z,97840.88
2019-02-04T08:30:24.679Z,97839.98
2019-02-04T08:31:28.702Z,97844.03
2019-02-04T08:32:32.338Z,97844.03
2019-02-04T08:33:36.011Z,97846.80
2019-02-04T08:34:39.659Z,97845.30
2019-02-04T08:35:43.628Z,97845.30
2019-02-04T08:36:47.256Z,97840.39
2019-02-04T08:37:50.924Z,97848.03
2019-02-04T08:38:54.598Z,97845.76
2019-02-04T08:39:58.240Z,97845.76
2019-02-04T08:41:01.891Z,97849.31
2019-02-04T08:42:05.660Z,97849.31
2019-02-04T08:43:09.352Z,97848.34
2019-02-04T08:44:13.027Z,97847.00
2019-02-04T08:45:16.677Z,97847.00
2019-02-04T08:46:20.386Z,97843.79
2019-02-04T08:47:24.450Z,97843.79
2019-02-04T08:48:28.185Z,97839.41
2019-02-04T08:49:32.147Z,97836.53
2019-02-04T08:50:35.798Z,97841.90
2019-02-04T08:51:39.471Z,97841.90
2019-02-04T08:52:43.126Z,97855.58
2019-02-04T08:53:46.835Z,97855.58
2019-02-04T08:54:50.510Z,97850.61
2019-02-04T08:55:54.148Z,97841.14
2019-02-04T08:56:57.818Z,97841.14
2019-02-04T08:58:01.456Z,97829.27
2019-02-04T08:59:05.091Z,97837.02
2019-02-04T09:00:14.889Z,97849.33
2019-02-04T09:01:18.527Z,97847.83
2019-02-04T09:02:23.792Z,97847.83
2019-02-04T09:03:27.428Z,97843.34
2019-02-04T09:04:33.212Z,97858.03
2019-02-04T09:05:37.232Z,97864.93
2019-02-04T09:06:41.268Z,97861.91
2019-02-04T09:07:45.215Z,97846.89
2019-02-04T09:08:48.931Z,97846.89
2019-02-04T09:09:52.567Z,97855.67
2019-02-04T09:10:56.285Z,97854.53
2019-02-04T09:11:59.930Z,97859.58
2019-02-04T09:13:03.712Z,97854.55
2019-02-04T09:14:07.365Z,97854.55
2019-02-04T09:15:16.225Z,97854.58
2019-02-04T09:16:19.121Z,97845.64
2019-02-04T09:17:22.825Z,97845.64
2019-02-04T09:18:26.495Z,97856.53
2019-02-04T09:19:30.910Z,97849.56
2019-02-04T09:20:34.605Z,97849.56
2019-02-04T09:21:38.251Z,97867.75
2019-02-04T09:22:41.888Z,97863.21
2019-02-04T09:23:45.722Z,97862.03
2019-02-04T09:24:49.370Z,97859.21
2019-02-04T09:25:53.012Z,97858.45
2019-02-04T09:26:56.660Z,97859.58
2019-02-04T09:28:00.304Z,97859.41
2019-02-04T09:29:04.037Z,97860.55
2019-02-04T09:30:10.666Z,97860.89
2019-02-04T09:31:14.311Z,97858.44
2019-02-04T09:32:17.958Z,97862.91
2019-02-04T09:33:22.237Z,97858.30
2019-02-04T09:34:25.980Z,97851.28
2019-02-04T09:35:29.721Z,97848.90
2019-02-04T09:36:33.393Z,97857.13
2019-02-04T09:37:37.120Z,97855.06
2019-02-04T09:38:40.855Z,97863.11
2019-02-04T09:39:46.490Z,97868.28
2019-02-04T09:40:50.859Z,97870.48
2019-02-04T09:41:54.560Z,97868.38
2019-02-04T09:42:58.192Z,97872.03
2019-02-04T09:44:01.834Z,97870.37
2019-02-04T09:45:08.519Z,97871.80
2019-02-04T09:46:12.167Z,97871.80
2019-02-04T09:47:15.806Z,97878.76
2019-02-04T09:48:19.868Z,97878.66
2019-02-04T09:49:23.881Z,97877.16
2019-02-04T09:50:32.497Z,97877.16
2019-02-04T09:51:36.014Z,97864.03
2019-02-04T09:52:39.649Z,97864.03
2019-02-04T09:53:43.286Z,97869.58
2019-02-04T09:54:47.289Z,97871.02
2019-02-04T09:55:50.955Z,97871.02
2019-02-04T09:56:54.989Z,97861.59
2019-02-04T09:57:58.630Z,97866.69
2019-02-04T09:59:02.306Z,97865.52
2019-02-04T10:00:08.852Z,97858.97
2019-02-04T10:01:12.727Z,97856.61
2019-02-04T10:02:16.364Z,97863.82
2019-02-04T10:03:20.140Z,97870.20
2019-02-04T10:04:23.862Z,97867.87
2019-02-04T10:05:27.872Z,97866.38
2019-02-04T10:06:31.551Z,97856.30
2019-02-04T10:07:35.229Z,97862.97
2019-02-04T10:08:38.875Z,97863.51
2019-02-04T10:09:42.514Z,97854.63
2019-02-04T10:10:46.160Z,97854.63
2019-02-04T10:11:49.835Z,97859.59
2019-02-04T10:12:53.673Z,97855.12
2019-02-04T10:13:57.327Z,97850.14
2019-02-04T10:15:00.992Z,97845.89
2019-02-04T10:16:04.860Z,97850.89
2019-02-04T10:17:08.515Z,97849.23
2019-02-04T10:18:12.976Z,97851.72
2019-02-04T10:19:16.682Z,97844.45
2019-02-04T10:20:20.957Z,97844.28
2019-02-04T10:21:24.558Z,97841.78
2019-02-04T10:22:28.263Z,97832.80
2019-02-04T10:23:32.004Z,97832.80
2019-02-04T10:24:35.554Z,97824.72
2019-02-04T10:25:41.627Z,97824.72
2019-02-04T10:26:45.281Z,97824.09
2019-02-04T10:27:49.031Z,97824.09
2019-02-04T10:28:52.732Z,97828.59
2019-02-04T10:29:58.034Z,97828.26
2019-02-04T10:31:01.646Z,97820.05
2019-02-04T10:32:05.720Z,97825.69
2019-02-04T10:33:09.861Z,97827.72
2019-02-04T10:34:13.468Z,97829.37
2019-02-04T10:35:18.576Z,97830.42
2019-02-04T10:36:23.140Z,97828.14
2019-02-04T10:37:26.856Z,97820.95
2019-02-04T10:38:30.514Z,97820.95
2019-02-04T10:39:34.177Z,97825.89
2019-02-04T10:40:37.840Z,97822.30
2019-02-04T10:41:41.534Z,97824.53
2019-02-04T10:42:45.286Z,97826.88
2019-02-04T10:43:49.036Z,97826.30
2019-02-04T10:44:52.679Z,97823.89
2019-02-04T10:45:56.319Z,97822.13
2019-02-04T10:46:59.973Z,97823.22
2019-02-04T10:48:03.854Z,97817.41
2019-02-04T10:49:07.593Z,97815.75
2019-02-04T10:50:14.438Z,97810.95
2019-02-04T10:51:18.530Z,97805.74
2019-02-04T10:52:23.304Z,97813.61
2019-02-04T10:53:27.841Z,97807.13
2019-02-04T10:54:32.792Z,97809.02
2019-02-04T10:55:36.467Z,97805.02
2019-02-04T10:56:40.211Z,97802.57
2019-02-04T10:57:43.973Z,97807.12
2019-02-04T10:58:47.636Z,97802.19
2019-02-04T10:59:51.348Z,97810.06
2019-02-04T11:00:55.066Z,97805.51
2019-02-04T11:01:58.794Z,97802.06
2019-02-04T11:03:03.114Z,97792.38
2019-02-04T11:04:06.798Z,97793.03
2019-02-04T11:05:13.750Z,97793.08
2019-02-04T11:06:17.825Z,97793.02
2019-02-04T11:07:21.838Z,97791.94
2019-02-04T11:08:25.638Z,97789.02
2019-02-04T11:09:29.456Z,97784.16
2019-02-04T11:10:34.865Z,97780.19
2019-02-04T11:11:38.776Z,97777.72
2019-02-04T11:12:42.660Z,97780.15
2019-02-04T11:13:46.385Z,97786.14
2019-02-04T11:14:50.122Z,97785.56
2019-02-04T11:15:54.182Z,97786.05
2019-02-04T11:16:59.070Z,97780.59
2019-02-04T11:18:02.832Z,97779.38
2019-02-04T11:19:07.563Z,97783.16
2019-02-04T11:20:26.350Z,97781.82
2019-02-04T11:21:30.219Z,97775.92
2019-02-04T11:22:34.026Z,97768.45
2019-02-04T11:23:37.806Z,97776.02
2019-02-04T11:24:41.547Z,97774.49
2019-02-04T11:25:45.755Z,97774.49
2019-02-04T11:26:49.624Z,97769.75
2019-02-04T11:27:53.264Z,97772.48
2019-02-04T11:28:56.913Z,97775.36
2019-02-04T11:30:00.641Z,97770.93
2019-02-04T11:31:04.723Z,97772.59
2019-02-04T11:32:08.400Z,97769.53
2019-02-04T11:33:12.311Z,97769.31
2019-02-04T11:34:15.958Z,97768.96
2019-02-04T11:35:19.611Z,97770.52
2019-02-04T11:36:23.235Z,97770.78
2019-02-04T11:37:26.907Z,97764.77
2019-02-04T11:38:30.700Z,97758.58
2019-02-04T11:39:34.362Z,97753.64
2019-02-04T11:40:40.272Z,97756.08
2019-02-04T11:41:44.335Z,97755.98
2019-02-04T11:42:48.252Z,97756.62
2019-02-04T11:43:52.377Z,97754.49
2019-02-04T11:44:56.006Z,97753.77
2019-02-04T11:45:59.710Z,97755.65
2019-02-04T11:47:03.394Z,97753.68
2019-02-04T11:48:12.458Z,97750.92
2019-02-04T11:49:16.247Z,97749.73
2019-02-04T11:50:19.895Z,97748.70
2019-02-04T11:51:23.539Z,97747.56
2019-02-04T11:52:27.181Z,97745.34
2019-02-04T11:53:33.042Z,97745.52
2019-02-04T11:54:36.236Z,97744.83
2019-02-04T11:55:39.952Z,97745.00
2019-02-04T11:56:45.987Z,97739.70
2019-02-04T11:57:50.108Z,97745.37
2019-02-04T11:58:54.205Z,97744.77
2019-02-04T11:59:57.845Z,97746.13
2019-02-04T12:01:01.494Z,97750.17
2019-02-04T12:02:09.385Z,97748.88
2019-02-04T12:03:14.005Z,97744.23
2019-02-04T12:04:18.068Z,97736.28
2019-02-04T12:05:23.499Z,97739.73
2019-02-04T12:06:27.147Z,97743.50
2019-02-04T12:07:30.852Z,97742.42
2019-02-04T12:08:34.494Z,97740.48
2019-02-04T12:09:38.165Z,97736.08
2019-02-04T12:10:45.223Z,97739.53
2019-02-04T12:11:48.885Z,97739.43
2019-02-04T12:12:52.603Z,97735.89
2019-02-04T12:13:56.717Z,97732.11
2019-02-04T12:15:00.606Z,97734.66
2019-02-04T12:16:05.718Z,97735.80
2019-02-04T12:17:09.386Z,97730.80
2019-02-04T12:18:13.031Z,97730.02
2019-02-04T12:19:16.669Z,97727.77
2019-02-04T12:20:20.814Z,97726.20
2019-02-04T12:21:24.449Z,97731.98
2019-02-04T12:22:28.089Z,97732.45
2019-02-04T12:23:31.736Z,97723.67
2019-02-04T12:24:35.374Z,97731.05
2019-02-04T12:25:39.048Z,97732.70
2019-02-04T12:26:42.726Z,97730.13
2019-02-04T12:27:46.458Z,97730.68
2019-02-04T12:28:50.568Z,97724.32
2019-02-04T12:29:54.282Z,97730.50
2019-02-04T12:30:57.956Z,97725.38
2019-02-04T12:32:01.593Z,97732.52